Arroyo, Texas
Current Conditions -  °F | °C
As of 6:52 AM on Friday 24 Oct 2014 (Local Time) from KHRL Reporting Station
Clear Clear  
Wind Chill: 18°   Ceiling: Unl
Heat Index: 18°   Visibility: 8mi
Dew Point: 18°   Wind: 6mph
Humidity: 97%   Direction: 350°N
Pressure: 30.08"   Gusts: NA
Location:  26.2089°N, 97.6849°W
Report Text: KHRL 241152Z 35005KT 8SM CLR 18/18 A3008 RMK AO2 SLP186 T01830178 10194 20172 53008
Loading
Personal Weather Stations






























Interactive Weather Map
Tropical Storm Tracking
New forecast layout! Learn more

10-Day Weather Forecast

Advertisements
Track Severe Weather on mobile